Time;durP1;ratioP1;P1;durP2;ratioP2;P2;SDS_P1;SDS_P2;PMS_P1;PMS_P2;Temp;Humidity;BMP_temperature;BMP_pressure;BME280_temperature;BME280_humidity;BME280_pressure;Samples;Min_cycle;Max_cycle;Signal;HPM_P1;HPM_P2
2022/01/26 00:06:29;;;;;;;102.00;35.25;;;;;;;2.18;84.18;103275.84;5024595;28;20060;-78
2022/01/26 00:08:55;;;;;;;108.40;36.10;;;;;;;2.21;84.31;103278.56;5007973;28;20026;-77
2022/01/26 00:11:20;;;;;;;116.68;35.28;;;;;;;2.20;84.37;103274.09;5019328;28;20036;-78
2022/01/26 00:13:46;;;;;;;107.60;35.00;;;;;;;2.21;84.28;103283.03;5018177;28;20029;-77
2022/01/26 00:16:23;;;;;;;112.93;35.63;;;;;;;2.20;83.86;103281.25;5025067;28;20064;-77
2022/01/26 00:18:49;;;;;;;99.28;34.30;;;;;;;2.20;84.37;103284.81;5009953;28;20101;-77
2022/01/26 00:21:26;;;;;;;105.47;34.35;;;;;;;2.19;84.21;103280.34;5008206;28;20141;-78
2022/01/26 00:26:33;;;;;;;116.68;37.35;;;;;;;2.21;84.03;103274.97;5015542;28;20045;-79
2022/01/26 00:29:10;;;;;;;108.05;34.35;;;;;;;2.19;84.49;103272.28;5026870;28;20045;-75
2022/01/26 00:40:00;;;;;;;106.20;33.20;;;;;;;2.19;84.68;103264.25;5025083;28;20052;-76
2022/01/26 00:42:28;;;;;;;111.72;36.30;;;;;;;2.20;85.10;103266.03;5023601;28;20473;-78
2022/01/26 00:44:53;;;;;;;106.50;34.20;;;;;;;2.19;85.19;103257.94;5024427;28;20030;-78
2022/01/26 00:47:19;;;;;;;108.03;35.03;;;;;;;2.17;84.92;103263.31;5024082;28;20044;-79
2022/01/26 00:49:44;;;;;;;107.85;35.55;;;;;;;2.12;84.04;103259.75;5021778;28;20059;-74
2022/01/26 00:52:14;;;;;;;112.93;36.38;;;;;;;2.15;84.31;103269.59;5030497;28;20033;-77
2022/01/26 00:54:39;;;;;;;114.75;36.45;;;;;;;2.14;84.76;103265.09;5026007;28;20032;-77
2022/01/26 00:57:05;;;;;;;112.25;34.22;;;;;;;2.11;84.08;103263.31;5020464;28;20184;-79
2022/01/26 00:59:30;;;;;;;104.05;35.33;;;;;;;2.14;85.09;103262.41;5027355;28;20052;-78
2022/01/26 01:01:56;;;;;;;107.60;36.28;;;;;;;2.14;84.72;103255.25;5027626;28;20025;-79
2022/01/26 01:04:22;;;;;;;104.57;34.95;;;;;;;2.14;84.59;103260.63;5022407;28;20035;-72
2022/01/26 01:06:54;;;;;;;112.57;34.22;;;;;;;2.14;84.84;103259.72;5027390;28;20046;-78
2022/01/26 01:09:21;;;;;;;108.00;33.88;;;;;;;2.11;84.49;103257.97;5024441;28;20064;-77
2022/01/26 01:11:47;;;;;;;113.35;35.65;;;;;;;2.15;84.23;103264.22;5026810;28;20029;-77
2022/01/26 01:14:12;;;;;;;108.05;34.63;;;;;;;2.15;84.10;103256.19;5024693;28;20009;-77
2022/01/26 01:16:38;;;;;;;114.03;35.78;;;;;;;2.14;84.30;103260.63;5024362;28;20067;-77
2022/01/26 01:19:13;;;;;;;116.25;36.08;;;;;;;2.12;84.33;103249.00;5020743;28;20021;-73
2022/01/26 01:29:22;;;;;;;111.72;35.40;;;;;;;2.06;83.76;103240.06;5024210;28;20028;-76
2022/01/26 01:32:13;;;;;;;123.50;35.67;;;;;;;2.05;84.16;103244.50;5024506;28;20025;-74
2022/01/26 01:34:39;;;;;;;106.20;33.90;;;;;;;2.03;84.57;103236.44;5020569;28;20036;-77
2022/01/26 01:37:08;;;;;;;106.07;32.65;;;;;;;2.04;83.91;103237.34;5027538;28;20047;-77
2022/01/26 01:39:34;;;;;;;116.57;35.45;;;;;;;2.03;84.39;103223.03;5026792;28;20085;-77
2022/01/26 01:42:01;;;;;;;116.30;36.58;;;;;;;2.02;83.70;103225.72;5018434;28;20037;-79
2022/01/26 01:44:27;;;;;;;112.05;33.20;;;;;;;2.01;84.60;103224.84;5025254;28;20024;-77
2022/01/26 01:46:54;;;;;;;107.95;34.38;;;;;;;2.01;83.39;103232.88;5026986;28;20025;-77
2022/01/26 01:49:19;;;;;;;109.32;35.17;;;;;;;1.99;83.39;103231.97;5021630;28;20474;-77
2022/01/26 01:51:51;;;;;;;104.38;34.58;;;;;;;2.00;83.41;103241.81;5026693;28;20021;-77
2022/01/26 01:54:18;;;;;;;103.32;36.15;;;;;;;1.99;83.58;103234.66;5023518;28;20385;-77
2022/01/26 01:56:54;;;;;;;114.93;34.33;;;;;;;2.00;83.88;103247.19;5027092;28;20021;-77
2022/01/26 01:59:22;;;;;;;121.00;35.70;;;;;;;2.00;84.54;103232.84;5026119;28;20013;-78
2022/01/26 02:01:47;;;;;;;118.03;33.15;;;;;;;1.99;84.91;103231.06;5024709;28;20045;-72
2022/01/26 02:04:13;;;;;;;112.38;36.67;;;;;;;1.97;84.01;103231.09;5021652;28;20033;-74
2022/01/26 02:06:40;;;;;;;111.95;34.83;;;;;;;1.98;84.75;103224.81;5020922;28;20390;-77
2022/01/26 02:09:06;;;;;;;110.70;33.30;;;;;;;1.91;84.45;103217.66;5008998;28;20394;-77
2022/01/26 02:11:31;;;;;;;104.40;33.90;;;;;;;1.97;84.50;103222.13;5022349;28;20021;-74
2022/01/26 02:14:11;;;;;;;112.80;34.95;;;;;;;1.94;83.94;103212.28;5029232;28;20021;-78
2022/01/26 02:16:48;;;;;;;112.93;34.22;;;;;;;1.91;84.18;103200.63;5027032;28;20159;-77
2022/01/26 02:49:21;;;;;;;114.32;35.13;;;;;;;1.89;83.47;103211.38;5028335;28;20114;-78
2022/01/26 02:49:45;;;;;;;103.70;32.97;;;;;;;1.82;83.55;103179.16;5015909;28;20067;-77
2022/01/26 02:52:31;;;;;;;113.97;33.03;;;;;;;1.82;83.80;103169.34;5028813;28;20036;-78
2022/01/26 02:55:24;;;;;;;122.70;33.88;;;;;;;1.83;84.87;103170.22;5028051;28;20389;-72
2022/01/26 02:58:10;;;;;;;102.78;32.47;;;;;;;1.82;84.43;103163.03;5016647;28;20465;-77
2022/01/26 03:03:20;;;;;;;105.72;32.13;;;;;;;1.81;84.17;103150.53;5017573;28;20037;-77
2022/01/26 03:05:53;;;;;;;118.28;35.05;;;;;;;1.78;83.68;103155.00;5013924;28;20029;-75
2022/01/26 03:08:27;;;;;;;110.63;33.53;;;;;;;1.79;84.26;103162.16;5028365;28;20056;-77
2022/01/26 03:10:55;;;;;;;113.53;35.33;;;;;;;1.79;84.84;103164.84;5014107;28;20031;-77
2022/01/26 03:13:26;;;;;;;120.00;35.10;;;;;;;1.77;84.96;103158.59;5034011;28;20021;-77
2022/01/26 03:15:54;;;;;;;110.90;33.85;;;;;;;1.77;84.87;103147.88;5016854;28;20032;-77
2022/01/26 03:20:49;;;;;;;115.40;34.42;;;;;;;1.77;84.87;103149.63;5024428;28;20528;-76
2022/01/26 03:28:47;;;;;;;120.28;33.40;;;;;;;1.75;85.18;103149.63;5019840;28;20048;-78
2022/01/26 03:36:19;;;;;;;115.60;35.25;;;;;;;1.76;84.99;103155.88;5025204;28;20022;-72
2022/01/26 03:38:50;;;;;;;116.82;33.15;;;;;;;1.75;85.26;103154.09;5026469;28;20394;-72
2022/01/26 03:41:32;;;;;;;101.93;31.67;;;;;;;1.73;85.24;103159.47;5020757;28;20029;-76
2022/01/26 03:43:58;;;;;;;110.82;32.97;;;;;;;1.75;85.50;103163.06;5010907;28;20462;-79
2022/01/26 03:46:24;;;;;;;106.90;32.72;;;;;;;1.75;85.61;103155.00;5025319;28;20052;-77
2022/01/26 03:48:49;;;;;;;114.95;34.03;;;;;;;1.75;85.34;103148.75;5022308;28;20022;-79
2022/01/26 03:51:14;;;;;;;113.03;33.40;;;;;;;1.74;85.55;103130.84;5026738;28;20057;-77
2022/01/26 03:53:40;;;;;;;117.90;34.45;;;;;;;1.73;85.76;103131.75;5027525;28;20029;-73
2022/01/26 03:56:05;;;;;;;104.07;31.73;;;;;;;1.73;86.14;103134.44;5023440;28;20053;-77
2022/01/26 03:58:30;;;;;;;110.13;34.20;;;;;;;1.72;85.49;103140.69;5019717;28;20374;-77
2022/01/26 04:00:56;;;;;;;104.13;32.15;;;;;;;1.71;85.02;103153.19;5024528;28;20069;-77
2022/01/26 04:03:21;;;;;;;111.90;33.20;;;;;;;1.72;85.41;103146.03;5022671;28;20488;-77
2022/01/26 04:05:46;;;;;;;113.53;33.80;;;;;;;1.70;85.68;103143.38;5023194;28;20485;-77
2022/01/26 04:08:18;;;;;;;114.15;36.25;;;;;;;1.70;85.58;103146.06;5024233;28;20478;-78
2022/01/26 04:11:03;;;;;;;122.43;34.05;;;;;;;1.71;85.55;103155.00;5026593;28;20392;-76
2022/01/26 04:13:28;;;;;;;111.25;32.42;;;;;;;1.69;85.37;103144.28;5021350;28;20097;-78
2022/01/26 04:15:54;;;;;;;108.90;32.85;;;;;;;1.71;85.27;103150.53;5016270;28;20124;-77
2022/01/26 04:18:25;;;;;;;116.40;33.92;;;;;;;1.72;85.81;103146.03;5025131;28;20037;-77
2022/01/26 04:20:55;;;;;;;121.55;34.67;;;;;;;1.69;85.35;103143.38;5024821;28;20025;-77
2022/01/26 04:23:38;;;;;;;110.78;34.15;;;;;;;1.69;85.43;103136.22;5031864;28;20469;-78
2022/01/26 04:26:04;;;;;;;113.57;34.78;;;;;;;1.69;85.63;103140.69;5020844;28;20092;-72
2022/01/26 04:28:40;;;;;;;112.30;35.22;;;;;;;1.67;85.44;103145.16;5031516;28;20424;-72
2022/01/26 04:31:08;;;;;;;109.50;33.38;;;;;;;1.65;85.30;103141.59;5028724;28;20424;-78
2022/01/26 04:33:34;;;;;;;114.03;35.33;;;;;;;1.67;85.48;103150.50;5013279;28;20133;-77
2022/01/26 04:35:59;;;;;;;120.80;37.58;;;;;;;1.65;84.37;103155.88;5023621;28;20052;-78
2022/01/26 04:38:33;;;;;;;119.53;34.00;;;;;;;1.65;84.69;103168.41;5028899;28;20025;-77
2022/01/26 04:41:14;;;;;;;113.40;35.75;;;;;;;1.65;85.23;103174.66;5026871;28;20038;-78
2022/01/26 04:43:42;;;;;;;109.68;32.58;;;;;;;1.63;85.22;103173.78;5015769;28;20040;-77
2022/01/26 04:46:08;;;;;;;115.40;33.40;;;;;;;1.63;85.28;103175.53;5022442;28;20033;-76
2022/01/26 04:48:34;;;;;;;112.05;32.88;;;;;;;1.65;85.28;103185.41;5017418;28;20026;-79
2022/01/26 04:50:59;;;;;;;108.38;33.22;;;;;;;1.64;85.16;103191.66;5030669;28;20087;-79
2022/01/26 04:53:24;;;;;;;106.32;33.42;;;;;;;1.65;84.76;103189.88;5030628;28;20465;-77
2022/01/26 04:55:50;;;;;;;109.20;33.58;;;;;;;1.60;85.06;103172.88;5029377;28;20021;-77
2022/01/26 04:58:15;;;;;;;109.30;33.60;;;;;;;1.61;85.19;103177.34;5020639;28;20025;-77
2022/01/26 05:00:40;;;;;;;116.80;35.42;;;;;;;1.59;84.86;103179.13;5026509;28;20102;-78
2022/01/26 05:03:06;;;;;;;108.53;33.75;;;;;;;1.59;85.27;103187.19;5029211;28;20021;-77
2022/01/26 05:05:31;;;;;;;111.47;32.55;;;;;;;1.59;85.33;103174.66;5011491;28;20029;-77
2022/01/26 05:07:56;;;;;;;116.85;35.58;;;;;;;1.57;84.91;103164.81;5029494;28;20037;-77
2022/01/26 05:10:22;;;;;;;106.75;34.05;;;;;;;1.57;85.80;103162.13;5019959;28;20060;-77
2022/01/26 05:12:48;;;;;;;110.25;33.15;;;;;;;1.56;85.37;103173.75;5013898;28;20095;-77
2022/01/26 05:15:13;;;;;;;114.80;32.45;;;;;;;1.55;85.56;103182.69;5023138;28;20034;-77
2022/01/26 05:17:40;;;;;;;115.57;33.95;;;;;;;1.55;85.58;103172.84;5019951;28;20026;-76
2022/01/26 05:20:08;;;;;;;120.80;34.80;;;;;;;1.54;85.85;103157.66;5021446;28;20048;-72
2022/01/26 05:22:34;;;;;;;111.13;33.10;;;;;;;1.55;86.03;103153.19;5024222;28;20033;-72
2022/01/26 05:25:00;;;;;;;121.85;33.83;;;;;;;1.54;85.66;103152.31;5028746;28;20469;-77
2022/01/26 05:27:25;;;;;;;108.90;32.63;;;;;;;1.52;85.90;103128.13;5026777;28;20032;-73
2022/01/26 05:29:50;;;;;;;112.25;33.22;;;;;;;1.51;85.73;103134.41;5027294;28;20021;-77
2022/01/26 05:32:16;;;;;;;124.00;34.83;;;;;;;1.50;85.70;103134.41;5027403;28;20397;-77
2022/01/26 05:34:41;;;;;;;118.65;34.47;;;;;;;1.47;85.86;103121.88;5014903;28;20117;-76
2022/01/26 05:37:06;;;;;;;112.47;32.42;;;;;;;1.50;86.24;103143.34;5029756;28;20854;-77
2022/01/26 05:39:33;;;;;;;112.05;33.30;;;;;;;1.48;85.59;103145.09;5026354;28;20032;-79
2022/01/26 05:41:58;;;;;;;124.40;35.97;;;;;;;1.47;85.94;103139.75;5022517;28;20024;-77
2022/01/26 05:44:23;;;;;;;104.93;32.78;;;;;;;1.47;85.89;103137.97;5015620;28;20571;-75
2022/01/26 05:46:50;;;;;;;110.63;33.97;;;;;;;1.45;85.78;103137.06;5022816;28;20508;-74
2022/01/26 05:49:17;;;;;;;111.60;33.53;;;;;;;1.46;85.62;103136.19;5016683;28;20048;-77
2022/01/26 05:51:46;;;;;;;116.43;34.58;;;;;;;1.47;86.02;103145.13;5023459;28;20022;-77
2022/01/26 05:54:12;;;;;;;118.85;35.53;;;;;;;1.47;86.03;103132.59;5011566;28;20021;-76
2022/01/26 05:56:39;;;;;;;106.60;32.97;;;;;;;1.48;86.03;103136.16;5015139;28;20453;-77
2022/01/26 05:59:04;;;;;;;117.50;35.33;;;;;;;1.48;86.14;103134.38;5009361;28;20107;-77
2022/01/26 06:01:30;;;;;;;117.40;34.17;;;;;;;1.48;86.01;103120.97;5019832;28;20501;-77
2022/01/26 06:03:55;;;;;;;115.35;33.97;;;;;;;1.49;86.39;103127.22;5008315;28;20029;-73
2022/01/26 06:06:21;;;;;;;112.43;35.42;;;;;;;1.47;86.32;103110.25;5007954;28;20060;-76
2022/01/26 06:08:46;;;;;;;110.80;34.72;;;;;;;1.46;86.13;103112.03;5010335;28;20381;-73
2022/01/26 06:11:12;;;;;;;109.53;33.38;;;;;;;1.47;86.44;103118.28;5016217;28;20033;-77
2022/01/26 06:13:37;;;;;;;109.90;33.35;;;;;;;1.48;86.23;103120.97;5009352;28;20025;-76
2022/01/26 06:16:03;;;;;;;111.82;33.53;;;;;;;1.47;86.49;103129.91;5009071;28;20052;-78
2022/01/26 06:18:28;;;;;;;124.18;34.63;;;;;;;1.50;86.29;103140.66;5009876;28;20128;-76
2022/01/26 06:20:55;;;;;;;121.50;35.05;;;;;;;1.52;86.71;103143.34;5009888;28;20022;-74
2022/01/26 06:23:24;;;;;;;121.50;36.65;;;;;;;1.52;86.40;103140.66;5009036;28;20033;-78
2022/01/26 06:25:51;;;;;;;121.72;35.95;;;;;;;1.51;86.75;103129.03;5016468;28;20053;-77
2022/01/26 06:28:16;;;;;;;121.78;37.60;;;;;;;1.52;86.61;103119.19;5013913;28;20041;-78
2022/01/26 06:30:45;;;;;;;124.72;36.45;;;;;;;1.52;86.70;103124.56;5010698;28;20033;-77
2022/01/26 06:33:12;;;;;;;113.07;34.63;;;;;;;1.51;86.78;103123.66;5008379;28;20390;-76
2022/01/26 06:35:37;;;;;;;112.95;34.88;;;;;;;1.50;86.96;103118.31;5012398;28;20572;-75
2022/01/26 06:38:03;;;;;;;122.38;36.67;;;;;;;1.52;87.12;103121.88;5028119;28;20100;-73
2022/01/26 06:40:28;;;;;;;126.28;34.38;;;;;;;1.49;87.15;103122.78;5026220;28;20473;-76
2022/01/26 06:43:01;;;;;;;119.40;35.92;;;;;;;1.52;87.20;103127.25;5011411;28;20026;-76
2022/01/26 06:45:30;;;;;;;121.85;35.47;;;;;;;1.50;86.99;103124.56;5016933;28;20077;-76
2022/01/26 06:48:27;;;;;;;118.57;36.85;;;;;;;1.52;87.11;103138.88;5021107;28;20076;-77
2022/01/26 06:50:44;;;;;;;110.07;35.53;;;;;;;1.51;86.96;103145.13;5026431;28;20148;-72
2022/01/26 06:53:09;;;;;;;122.65;36.80;;;;;;;1.53;87.19;103147.81;5027090;28;20824;-77
2022/01/26 06:55:36;;;;;;;116.22;34.33;;;;;;;1.53;87.18;103132.59;5014228;28;20382;-72
2022/01/26 06:58:02;;;;;;;110.65;32.65;;;;;;;1.55;87.34;103121.00;5026117;28;20417;-78
2022/01/26 07:00:27;;;;;;;112.70;33.83;;;;;;;1.55;87.44;103123.69;5024848;28;20099;-73
2022/01/26 07:02:54;;;;;;;118.40;35.17;;;;;;;1.55;87.57;103127.25;5027001;28;20115;-76
2022/01/26 07:05:20;;;;;;;122.80;38.70;;;;;;;1.56;87.44;103128.16;5022168;28;20033;-77
2022/01/26 07:07:45;;;;;;;113.43;34.80;;;;;;;1.56;87.40;103125.47;5022113;28;20044;-76
2022/01/26 07:10:11;;;;;;;119.68;38.38;;;;;;;1.56;87.56;103120.09;5025127;28;20038;-77
2022/01/26 07:12:36;;;;;;;104.55;34.55;;;;;;;1.56;88.05;103131.72;5014341;28;20026;-77
2022/01/26 07:23:01;;;;;;;124.20;35.55;;;;;;;1.60;87.91;103146.94;5028431;28;20037;-76
2022/01/26 07:25:27;;;;;;;121.70;37.53;;;;;;;1.61;88.00;103162.13;5021626;28;20869;-73
2022/01/26 07:27:52;;;;;;;122.53;35.85;;;;;;;1.60;88.10;103162.13;5026024;28;20551;-77
2022/01/26 07:30:18;;;;;;;117.45;35.08;;;;;;;1.62;88.15;103144.25;5026498;28;20033;-76
2022/01/26 07:32:44;;;;;;;115.38;37.20;;;;;;;1.63;88.29;103152.31;5023360;28;20029;-76
2022/01/26 07:35:09;;;;;;;131.60;37.42;;;;;;;1.62;88.53;103157.66;5016463;28;20040;-77
2022/01/26 07:37:34;;;;;;;134.60;39.30;;;;;;;1.62;88.61;103150.50;5027540;28;20738;-76
2022/01/26 07:40:04;;;;;;;126.32;35.70;;;;;;;1.64;88.88;103147.84;5015306;28;20122;-76
2022/01/26 07:42:30;;;;;;;129.65;37.63;;;;;;;1.63;88.77;103143.34;5016825;28;20107;-78
2022/01/26 07:44:55;;;;;;;127.00;34.50;;;;;;;1.64;89.04;103146.06;5014249;28;20060;-76
2022/01/26 07:47:23;;;;;;;138.18;39.65;;;;;;;1.61;89.11;103145.16;5022439;28;20104;-76
2022/01/26 07:49:48;;;;;;;123.50;36.38;;;;;;;1.61;89.24;103145.16;5017554;28;20034;-77
2022/01/26 07:52:14;;;;;;;126.53;38.67;;;;;;;1.62;89.43;103145.13;5028256;28;20032;-73
2022/01/26 07:54:39;;;;;;;144.18;40.17;;;;;;;1.64;89.77;103147.84;5015251;28;20036;-76
2022/01/26 07:57:07;;;;;;;127.75;36.58;;;;;;;1.64;89.49;103143.38;5010648;28;20497;-76
2022/01/26 07:59:32;;;;;;;135.23;36.67;;;;;;;1.65;89.59;103160.34;5011883;28;20452;-77
2022/01/26 08:01:57;;;;;;;142.23;38.92;;;;;;;1.66;89.57;103171.09;5025907;28;20091;-76
2022/01/26 08:04:23;;;;;;;137.98;38.85;;;;;;;1.68;89.85;103188.09;5012303;28;20076;-76
2022/01/26 08:06:48;;;;;;;131.18;37.33;;;;;;;1.69;89.76;103186.31;5026357;28;20037;-76
2022/01/26 08:09:13;;;;;;;129.50;37.40;;;;;;;1.71;89.90;103187.19;5022394;28;20033;-72
2022/01/26 08:11:39;;;;;;;134.75;36.60;;;;;;;1.71;89.95;103173.78;5019585;28;20561;-76
2022/01/26 08:14:04;;;;;;;123.45;37.25;;;;;;;1.72;89.77;103187.19;5006368;28;20042;-72
2022/01/26 08:16:29;;;;;;;122.15;34.72;;;;;;;1.71;90.11;103168.41;5007276;28;20018;-76
2022/01/26 08:18:55;;;;;;;137.10;37.63;;;;;;;1.75;90.18;103189.00;5007256;28;20068;-76
2022/01/26 08:21:20;;;;;;;129.95;35.97;;;;;;;1.76;90.01;103188.09;5007494;28;20022;-72
2022/01/26 08:23:47;;;;;;;126.25;36.25;;;;;;;1.78;90.11;103183.63;5008248;28;20026;-76
2022/01/26 08:26:14;;;;;;;115.95;34.40;;;;;;;1.79;90.33;103177.38;5005998;28;20032;-73
2022/01/26 08:28:42;;;;;;;121.35;35.40;;;;;;;1.79;90.25;103175.59;5008155;28;20022;-76
2022/01/26 08:31:08;;;;;;;134.18;37.90;;;;;;;1.79;90.40;103175.59;5018760;28;20072;-72
2022/01/26 08:33:33;;;;;;;126.03;37.80;;;;;;;1.79;90.36;103175.59;5007443;28;20057;-77
2022/01/26 08:35:58;;;;;;;109.20;32.88;;;;;;;1.82;90.40;103173.78;5007615;28;20030;-77
2022/01/26 08:38:24;;;;;;;128.85;36.10;;;;;;;1.83;90.29;103181.84;5007411;28;20026;-76
2022/01/26 08:40:50;;;;;;;126.85;35.97;;;;;;;1.82;90.13;103174.72;5007232;28;20032;-76
2022/01/26 08:43:15;;;;;;;116.45;34.90;;;;;;;1.84;90.39;103172.00;5011676;28;20044;-76
2022/01/26 08:45:41;;;;;;;134.48;36.60;;;;;;;1.84;90.48;103188.13;5018418;28;20030;-78
2022/01/26 08:48:06;;;;;;;109.68;32.42;;;;;;;1.84;90.54;103175.59;5021635;28;20034;-76
2022/01/26 08:50:32;;;;;;;129.50;36.30;;;;;;;1.86;90.61;103183.63;5022884;28;20026;-77
2022/01/26 08:52:57;;;;;;;121.05;36.85;;;;;;;1.86;90.58;103181.84;5023161;28;20033;-76
2022/01/26 08:55:23;;;;;;;127.75;35.97;;;;;;;1.87;90.58;103188.13;5024455;28;20025;-72
2022/01/26 08:57:48;;;;;;;136.88;36.03;;;;;;;1.90;90.75;103190.81;5028461;28;20049;-73
2022/01/26 09:00:16;;;;;;;119.15;34.53;;;;;;;1.91;90.94;103193.50;5029075;28;20107;-72
2022/01/26 09:02:42;;;;;;;138.95;36.63;;;;;;;1.91;90.73;103185.44;5029029;28;20108;-77
2022/01/26 09:05:10;;;;;;;123.72;36.63;;;;;;;1.92;90.61;103179.19;5025921;28;20568;-76
2022/01/26 09:07:37;;;;;;;120.78;36.05;;;;;;;1.92;91.01;103179.19;5016590;28;20029;-76
2022/01/26 09:10:04;;;;;;;124.30;34.85;;;;;;;1.93;90.85;103177.41;5029188;28;20040;-72
2022/01/26 09:12:32;;;;;;;115.90;34.20;;;;;;;1.94;90.97;103182.75;5016567;28;20121;-77
2022/01/26 09:15:01;;;;;;;119.05;33.05;;;;;;;1.94;91.06;103180.06;5025582;28;20105;-72
2022/01/26 09:17:30;;;;;;;117.70;35.63;;;;;;;1.96;91.01;103186.34;5021090;28;20378;-76
2022/01/26 09:19:58;;;;;;;107.25;32.40;;;;;;;1.99;90.77;103186.34;5019907;28;20027;-76
2022/01/26 09:22:23;;;;;;;122.25;35.13;;;;;;;2.00;90.76;103196.16;5019128;28;20026;-76
2022/01/26 09:24:49;;;;;;;105.75;32.30;;;;;;;2.02;90.62;103193.50;5030456;28;20461;-73
2022/01/26 09:27:16;;;;;;;103.75;33.08;;;;;;;2.05;90.58;103190.81;5029027;28;20566;-76
2022/01/26 09:29:43;;;;;;;113.93;31.52;;;;;;;2.07;90.66;103196.19;5028704;28;20485;-76
2022/01/26 09:32:09;;;;;;;105.97;32.72;;;;;;;2.09;90.59;103195.28;5029816;28;20021;-77
2022/01/26 09:34:35;;;;;;;110.07;33.03;;;;;;;2.12;90.21;103203.34;5014343;28;20026;-76
2022/01/26 09:37:02;;;;;;;109.68;32.25;;;;;;;2.13;90.33;103204.25;5029635;28;20108;-76
2022/01/26 09:39:28;;;;;;;116.30;32.75;;;;;;;2.16;90.36;103193.53;5025025;28;20112;-72
2022/01/26 09:41:53;;;;;;;114.38;33.55;;;;;;;2.18;90.37;103189.03;5024079;28;20150;-72
2022/01/26 09:44:20;;;;;;;106.32;32.67;;;;;;;2.19;90.24;103180.06;5016868;28;20028;-76
2022/01/26 09:46:46;;;;;;;107.88;33.42;;;;;;;2.22;90.32;103182.78;5023306;28;20072;-75
2022/01/26 09:49:16;;;;;;;105.47;33.33;;;;;;;2.22;90.23;103172.91;5017878;28;20038;-77
2022/01/26 09:51:43;;;;;;;113.25;35.00;;;;;;;2.24;90.34;103165.78;5030143;28;20037;-77
2022/01/26 09:54:14;;;;;;;111.80;32.13;;;;;;;2.25;90.15;103155.94;5020242;28;20395;-78
2022/01/26 09:56:41;;;;;;;103.50;35.08;;;;;;;2.28;90.13;103163.94;5023813;28;20548;-76
2022/01/26 09:59:07;;;;;;;97.38;30.67;;;;;;;2.29;90.03;103166.66;5026282;28;20056;-76
2022/01/26 10:01:44;;;;;;;107.00;33.83;;;;;;;2.30;90.10;103165.75;5026752;28;20061;-78
2022/01/26 10:04:40;;;;;;;99.65;31.55;;;;;;;2.35;89.82;103168.44;5012583;28;20026;-72
2022/01/26 10:09:57;;;;;;;102.88;32.40;;;;;;;2.38;89.85;103163.09;5022751;28;20466;-77
2022/01/26 10:18:07;;;;;;;87.80;29.70;;;;;;;2.43;89.32;103173.81;5023888;28;20037;-76
2022/01/26 10:20:48;;;;;;;90.78;29.50;;;;;;;2.45;89.21;103172.91;5022007;28;20057;-77
2022/01/26 10:23:17;;;;;;;88.65;31.33;;;;;;;2.46;88.99;103163.03;5027235;28;20482;-77
2022/01/26 10:25:47;;;;;;;90.50;30.55;;;;;;;2.46;89.11;103150.50;5026895;28;20456;-72
2022/01/26 10:28:16;;;;;;;86.30;29.23;;;;;;;2.50;89.00;103143.34;5027517;28;20057;-72
2022/01/26 10:30:47;;;;;;;80.38;27.25;;;;;;;2.51;89.01;103140.66;5027293;28;20034;-76
2022/01/26 10:33:13;;;;;;;84.00;28.27;;;;;;;2.51;88.83;103154.06;5022839;28;20032;-71
2022/01/26 10:35:38;;;;;;;76.70;27.40;;;;;;;2.53;89.08;103165.72;5026761;28;20036;-76
2022/01/26 10:38:05;;;;;;;76.72;27.55;;;;;;;2.57;89.16;103173.81;5028305;28;20568;-77
2022/01/26 10:40:31;;;;;;;77.60;27.50;;;;;;;2.61;89.03;103191.69;5028640;28;20080;-73
2022/01/26 10:43:13;;;;;;;81.03;29.73;;;;;;;2.64;89.15;103200.63;5013006;28;20473;-71
2022/01/26 10:53:57;;;;;;;75.80;28.48;;;;;;;2.65;88.69;103205.09;5029273;28;20068;-72
2022/01/26 10:56:22;;;;;;;75.25;26.33;;;;;;;2.68;88.56;103198.84;5021784;28;20030;-76
2022/01/26 10:58:48;;;;;;;77.15;27.55;;;;;;;2.68;88.54;103201.53;5022386;28;20049;-76
2022/01/26 11:01:13;;;;;;;79.07;27.88;;;;;;;2.69;88.90;103200.63;5026063;28;20056;-77
2022/01/26 11:03:39;;;;;;;65.85;24.98;;;;;;;2.70;88.47;103191.66;5014989;28;20386;-76
2022/01/26 11:06:05;;;;;;;72.68;26.23;;;;;;;2.70;88.74;103188.97;5026390;28;20036;-73
2022/01/26 11:08:35;;;;;;;70.63;27.30;;;;;;;2.72;88.71;103190.78;5027879;28;20036;-76
2022/01/26 11:11:00;;;;;;;81.00;27.98;;;;;;;2.73;88.74;103197.94;5022997;28;20029;-76
2022/01/26 11:13:35;;;;;;;80.68;27.27;;;;;;;2.75;88.83;103187.16;5032594;28;20075;-77
2022/01/26 11:16:11;;;;;;;70.57;27.23;;;;;;;2.77;88.79;103180.00;5016138;28;20030;-77
2022/01/26 11:18:54;;;;;;;67.95;26.38;;;;;;;2.79;88.73;103189.84;5023141;28;20409;-77
2022/01/26 11:21:33;;;;;;;72.90;27.35;;;;;;;2.80;88.84;103182.72;5025677;28;20068;-76
2022/01/26 11:24:23;;;;;;;66.45;26.45;;;;;;;2.81;88.95;103173.75;5028145;28;20549;-76
2022/01/26 11:27:02;;;;;;;70.50;25.42;;;;;;;2.82;88.51;103175.53;5025095;28;20021;-76
2022/01/26 11:29:33;;;;;;;74.00;27.70;;;;;;;2.78;88.73;103180.00;5021153;28;20485;-71
2022/01/26 11:32:28;;;;;;;64.97;26.58;;;;;;;2.79;88.57;103165.66;5026475;28;20511;-73
2022/01/26 11:34:55;;;;;;;74.43;28.13;;;;;;;2.83;88.89;103168.34;5015436;28;20096;-76
2022/01/26 11:37:43;;;;;;;71.47;26.52;;;;;;;2.83;88.72;103160.28;5026577;28;20056;-77
2022/01/26 11:45:35;;;;;;;81.13;30.13;;;;;;;2.92;89.08;103131.56;5016768;28;20042;-76
2022/01/26 11:48:23;;;;;;;74.55;27.73;;;;;;;2.93;88.85;103138.72;5007525;28;20383;-76
2022/01/26 11:50:58;;;;;;;82.57;28.92;;;;;;;2.94;89.01;103135.16;5014777;28;20083;-77
2022/01/26 11:53:25;;;;;;;89.60;28.35;;;;;;;2.97;88.85;103136.94;5013024;28;20498;-77
2022/01/26 11:55:58;;;;;;;81.57;29.50;;;;;;;2.98;88.75;103139.59;5002983;28;20037;-73
2022/01/26 11:58:33;;;;;;;88.20;27.70;;;;;;;2.99;88.66;103146.78;5007197;28;20026;-77
2022/01/26 12:03:43;;;;;;;78.68;28.10;;;;;;;3.03;88.67;103126.13;5014409;28;20037;-77
2022/01/26 12:06:17;;;;;;;;;;;;;;;3.06;88.68;103129.72;5014627;28;20057;-78
2022/01/26 12:08:42;;;;;;;77.07;26.95;;;;;;;3.06;88.63;103123.44;5015543;28;20316;-77
2022/01/26 12:11:14;;;;;;;81.32;26.58;;;;;;;3.07;88.58;103120.75;5022920;28;20017;-77
2022/01/26 12:13:41;;;;;;;79.17;28.43;;;;;;;3.11;88.54;103123.44;5013517;28;20025;-72
2022/01/26 12:16:18;;;;;;;76.50;27.58;;;;;;;3.12;88.45;103122.53;5014055;28;20774;-72
2022/01/26 12:18:59;;;;;;;81.47;27.30;;;;;;;3.13;88.34;103127.91;5016483;28;20033;-76
2022/01/26 12:33:01;;;;;;;80.32;29.60;;;;;;;3.23;88.17;103131.44;5014132;28;20040;-77
2022/01/26 12:35:54;;;;;;;77.63;27.88;;;;;;;3.22;88.23;103122.50;5024314;28;20083;-73
2022/01/26 12:38:32;;;;;;;79.47;28.48;;;;;;;3.21;87.83;103123.38;5030393;28;20356;-76
2022/01/26 12:43:47;;;;;;;79.95;27.45;;;;;;;3.18;87.77;103134.16;5014110;28;20137;-76
2022/01/26 12:46:19;;;;;;;82.32;27.20;;;;;;;3.19;87.82;103135.94;5025448;28;20021;-78
2022/01/26 12:48:50;;;;;;;86.05;29.88;;;;;;;3.21;87.62;103133.22;5025471;28;20034;-79
2022/01/26 12:51:17;;;;;;;83.20;27.02;;;;;;;3.17;87.68;103124.31;5023978;28;20424;-71
2022/01/26 12:53:42;;;;;;;80.10;29.25;;;;;;;3.19;87.90;103126.97;5031509;28;20036;-76
2022/01/26 12:56:11;;;;;;;78.22;28.70;;;;;;;3.23;87.83;103136.84;5026784;28;20477;-78
2022/01/26 12:58:39;;;;;;;92.07;31.42;;;;;;;3.25;87.40;103130.53;5037275;28;20392;-72
2022/01/26 13:01:07;;;;;;;81.72;27.83;;;;;;;3.29;87.36;103128.72;5028159;28;20140;-76
2022/01/26 13:03:38;;;;;;;85.18;29.60;;;;;;;3.30;87.94;103120.63;5010740;28;20030;-76
2022/01/26 13:06:08;;;;;;;81.35;28.98;;;;;;;3.33;87.78;103117.03;5011951;28;20021;-75
2022/01/26 13:08:45;;;;;;;80.65;30.90;;;;;;;3.35;87.27;103115.22;5019430;28;20484;-77
2022/01/26 13:11:11;;;;;;;90.57;30.02;;;;;;;3.33;87.69;103107.16;5013153;28;20140;-78
2022/01/26 13:13:36;;;;;;;79.50;29.13;;;;;;;3.35;87.22;103087.44;5020831;28;20112;-78